Time;durP1;ratioP1;P1;durP2;ratioP2;P2;SDS_P1;SDS_P2;PMS_P1;PMS_P2;Temp;Humidity;BMP_temperature;BMP_pressure;BME280_temperature;BME280_humidity;BME280_pressure;Samples;Min_cycle;Max_cycle;Signal;HPM_P1;HPM_P2
2021/10/21 00:02:33;;;;;;;19.45;3.53;;;13.10;96.20;;;;;;4793976;27;20084;-89
2021/10/21 00:04:58;;;;;;;12.38;2.75;;;13.10;96.20;;;;;;4790114;29;20051;-89
2021/10/21 00:07:24;;;;;;;16.30;3.17;;;13.10;96.20;;;;;;4790941;29;20063;-89
2021/10/21 00:09:50;;;;;;;17.08;3.63;;;13.20;96.30;;;;;;4790514;29;20043;-89
2021/10/21 00:37:11;;;;;;;18.80;7.13;;;13.20;97.30;;;;;;4804601;29;20147;-86
2021/10/21 00:39:54;;;;;;;16.17;6.20;;;13.30;97.60;;;;;;4779020;30;20082;-83
2021/10/21 00:43:08;;;;;;;;;;;;;;;;;;;;;
2021/10/21 00:49:58;;;;;;;11.98;5.85;;;13.20;97.10;;;;;;4751178;29;20085;-83
2021/10/21 01:03:44;;;;;;;15.10;6.40;;;13.20;97.60;;;;;;4771281;30;20051;-81
2021/10/21 01:10:14;;;;;;;11.40;5.97;;;13.20;97.30;;;;;;4879201;24;20146;-84
2021/10/21 01:17:53;;;;;;;9.93;4.72;;;13.20;97.10;;;;;;4912283;24;20054;-83
2021/10/21 01:20:53;;;;;;;9.68;4.70;;;13.20;97.10;;;;;;4790208;29;20492;-83
2021/10/21 01:23:18;;;;;;;6.90;3.47;;;13.20;97.10;;;;;;4790513;29;20042;-83
2021/10/21 01:25:47;;;;;;;10.52;4.35;;;13.20;97.00;;;;;;4806385;29;20107;-84
2021/10/21 01:28:12;;;;;;;9.57;4.18;;;13.20;97.00;;;;;;4798968;29;20051;-84
2021/10/21 01:30:44;;;;;;;8.95;4.00;;;13.20;97.00;;;;;;4790032;29;20050;-83
2021/10/21 01:33:13;;;;;;;9.40;4.72;;;13.20;96.90;;;;;;4797151;29;20049;-84
2021/10/21 01:35:42;;;;;;;7.88;3.67;;;13.20;97.00;;;;;;4807014;29;20049;-84
2021/10/21 01:38:07;;;;;;;8.18;3.72;;;13.20;96.90;;;;;;4806091;29;20381;-84
2021/10/21 01:40:36;;;;;;;9.48;3.88;;;13.20;96.90;;;;;;4791792;29;20057;-83
2021/10/21 01:43:03;;;;;;;6.47;3.67;;;13.20;97.00;;;;;;4790357;29;20038;-84
2021/10/21 01:45:32;;;;;;;6.88;3.40;;;13.20;97.00;;;;;;4791589;29;20115;-89
2021/10/21 01:48:01;;;;;;;7.57;3.72;;;13.20;96.90;;;;;;4806701;29;20106;-86
2021/10/21 01:50:29;;;;;;;8.70;3.08;;;13.20;97.00;;;;;;4793031;29;20053;-86
2021/10/21 01:52:55;;;;;;;7.50;3.10;;;13.20;96.80;;;;;;4790965;29;20059;-86
2021/10/21 01:55:21;;;;;;;7.80;3.65;;;13.30;96.80;;;;;;4789714;29;20519;-86
2021/10/21 01:57:47;;;;;;;8.23;3.55;;;13.20;96.90;;;;;;4791954;29;20488;-86
2021/10/21 02:00:15;;;;;;;10.05;3.88;;;13.30;96.90;;;;;;4791231;29;20046;-86
2021/10/21 02:02:42;;;;;;;6.97;3.50;;;13.30;97.00;;;;;;4789752;29;20086;-87
2021/10/21 02:05:08;;;;;;;8.20;3.30;;;13.30;97.20;;;;;;4805174;29;20103;-86
2021/10/21 02:32:44;;;;;;;5.60;2.35;;;13.30;97.60;;;;;;4789387;30;20405;-84
2021/10/21 02:35:11;;;;;;;5.00;2.20;;;13.30;97.70;;;;;;4775029;30;20058;-84
2021/10/21 02:37:37;;;;;;;4.55;1.55;;;13.30;97.50;;;;;;4774543;30;20051;-85
2021/10/21 02:40:05;;;;;;;5.00;1.42;;;13.30;97.30;;;;;;4774900;30;20109;-85
2021/10/21 02:42:31;;;;;;;4.13;1.20;;;13.30;97.10;;;;;;4774945;30;20051;-86
2021/10/21 02:44:56;;;;;;;4.15;1.20;;;13.20;97.00;;;;;;4774853;30;20054;-86
2021/10/21 02:47:22;;;;;;;3.97;1.20;;;13.10;96.90;;;;;;4775444;30;20076;-86
2021/10/21 02:49:48;;;;;;;4.55;1.00;;;13.10;96.90;;;;;;4764926;30;20044;-87
2021/10/21 02:52:13;;;;;;;5.85;1.30;;;13.00;96.80;;;;;;4770470;30;20052;-88
2021/10/21 02:54:39;;;;;;;3.92;1.00;;;12.90;96.70;;;;;;4769986;30;20137;-87
2021/10/21 02:57:04;;;;;;;6.03;1.00;;;12.90;96.60;;;;;;4775276;30;20046;-87
2021/10/21 02:59:30;;;;;;;4.60;0.93;;;12.80;96.50;;;;;;4774870;30;20431;-89
2021/10/21 03:01:56;;;;;;;4.20;0.90;;;12.80;96.50;;;;;;4775029;30;20047;-89
2021/10/21 03:04:22;;;;;;;4.53;0.85;;;12.70;96.40;;;;;;4775133;30;20043;-89
2021/10/21 03:06:47;;;;;;;4.20;0.85;;;12.70;96.50;;;;;;4774769;30;20047;-88
2021/10/21 03:09:13;;;;;;;8.20;1.20;;;12.60;96.40;;;;;;4775304;30;20039;-87
2021/10/21 03:19:32;;;;;;;6.57;1.25;;;12.50;96.50;;;;;;4807083;24;20508;-88
2021/10/21 03:37:01;;;;;;;7.85;1.25;;;12.40;96.50;;;;;;4756246;30;20056;-88
2021/10/21 03:57:55;;;;;;;10.60;0.98;;;12.20;96.10;;;;;;4966725;24;20094;-87
2021/10/21 04:10:57;;;;;;;4.90;0.70;;;12.10;95.60;;;;;;4805459;29;20045;-89
2021/10/21 04:34:34;;;;;;;6.28;0.75;;;11.90;97.10;;;;;;4807826;29;20061;-86
2021/10/21 04:37:12;;;;;;;5.90;0.85;;;11.90;97.20;;;;;;4773030;29;20046;-85
2021/10/21 04:39:37;;;;;;;6.22;0.88;;;11.80;97.40;;;;;;4794743;29;20074;-85
2021/10/21 04:42:45;;;;;;;5.45;1.05;;;11.80;97.50;;;;;;4808000;29;20088;-86
2021/10/21 04:46:02;;;;;;;5.97;0.95;;;11.80;97.70;;;;;;4783572;29;20145;-87
2021/10/21 04:48:39;;;;;;;6.65;1.23;;;11.70;98.20;;;;;;4808643;29;20054;-85
2021/10/21 04:51:06;;;;;;;7.00;1.30;;;11.70;97.90;;;;;;4804733;29;20559;-84
2021/10/21 04:53:38;;;;;;;6.32;1.02;;;11.70;98.10;;;;;;4791363;29;20099;-85
2021/10/21 04:56:03;;;;;;;4.72;1.13;;;11.70;98.20;;;;;;4791017;29;20054;-85
2021/10/21 04:58:39;;;;;;;6.45;1.15;;;11.70;98.30;;;;;;4791515;29;20054;-87
2021/10/21 05:01:10;;;;;;;8.52;0.90;;;11.70;98.30;;;;;;4804483;29;20066;-85
2021/10/21 05:03:36;;;;;;;3.97;1.15;;;11.70;98.40;;;;;;4791323;29;20050;-84
2021/10/21 05:06:14;;;;;;;4.75;0.80;;;11.70;98.40;;;;;;4789878;29;20057;-85
2021/10/21 05:08:39;;;;;;;5.45;0.98;;;11.70;98.40;;;;;;4790356;29;20517;-84
2021/10/21 05:11:05;;;;;;;3.60;0.70;;;11.60;98.50;;;;;;4806904;29;20100;-85
2021/10/21 05:13:40;;;;;;;5.38;1.00;;;11.60;98.40;;;;;;4793234;29;20043;-83
2021/10/21 05:16:09;;;;;;;3.30;0.60;;;11.60;98.40;;;;;;4800554;29;20042;-86
2021/10/21 05:18:34;;;;;;;5.38;0.70;;;11.60;98.20;;;;;;4807184;29;20511;-84
2021/10/21 05:21:00;;;;;;;3.35;0.60;;;11.50;98.10;;;;;;4803689;29;20042;-84
2021/10/21 05:23:25;;;;;;;3.78;0.50;;;11.50;98.00;;;;;;4800205;29;20415;-83
2021/10/21 05:25:51;;;;;;;5.60;0.77;;;11.50;97.90;;;;;;4806919;29;20041;-84
2021/10/21 05:28:16;;;;;;;4.43;0.70;;;11.40;97.80;;;;;;4807926;29;20099;-83
2021/10/21 05:30:44;;;;;;;5.35;0.80;;;11.40;97.80;;;;;;4806789;29;20418;-84
2021/10/21 05:33:10;;;;;;;3.80;0.65;;;11.30;97.80;;;;;;4806621;29;20054;-82
2021/10/21 05:35:35;;;;;;;6.10;1.05;;;11.30;97.80;;;;;;4805881;29;20076;-81
2021/10/21 05:38:01;;;;;;;6.82;0.80;;;11.20;97.80;;;;;;4798010;29;20141;-85
2021/10/21 05:40:27;;;;;;;3.92;0.52;;;11.20;97.90;;;;;;4789770;29;20043;-86
2021/10/21 05:43:00;;;;;;;6.43;0.80;;;11.20;98.10;;;;;;4790066;29;20084;-86
2021/10/21 05:45:29;;;;;;;6.05;0.70;;;11.20;98.10;;;;;;4790308;29;20420;-87
2021/10/21 05:49:01;;;;;;;5.85;0.90;;;11.20;98.10;;;;;;4789548;29;20408;-87
2021/10/21 05:55:09;;;;;;;3.35;0.70;;;11.20;97.90;;;;;;4796705;29;20111;-83
2021/10/21 05:58:14;;;;;;;;;;;11.20;98.10;;;;;;4800241;29;20051;-84
2021/10/21 06:00:55;;;;;;;;;;;11.10;97.60;;;;;;4736418;30;19926;-83
2021/10/21 06:04:09;;;;;;;5.03;0.63;;;11.10;97.50;;;;;;4762435;30;19925;-85
2021/10/21 06:06:41;;;;;;;6.00;0.80;;;11.10;98.00;;;;;;4760997;29;20051;-84
2021/10/21 06:15:23;;;;;;;5.78;0.68;;;11.10;98.00;;;;;;5003899;24;20052;-87
2021/10/21 06:17:49;;;;;;;3.97;0.70;;;11.10;98.00;;;;;;4824624;29;20531;-85
2021/10/21 06:20:15;;;;;;;4.28;0.50;;;11.10;97.90;;;;;;4811071;29;20050;-87
2021/10/21 06:22:42;;;;;;;6.95;0.60;;;11.10;97.80;;;;;;4808953;29;20065;-88
2021/10/21 06:25:36;;;;;;;3.47;0.52;;;11.00;97.90;;;;;;4798305;29;20507;-87
2021/10/21 06:32:46;;;;;;;4.70;0.80;;;11.00;97.90;;;;;;4788604;30;20050;-89
2021/10/21 06:35:46;;;;;;;5.75;0.82;;;11.00;97.80;;;;;;4770781;30;20396;-87
2021/10/21 06:39:08;;;;;;;3.78;0.60;;;11.00;97.80;;;;;;4762173;30;20052;-88
2021/10/21 07:25:36;;;;;;;12.45;1.30;;;11.00;98.50;;;;;;4751185;30;20052;-86
2021/10/21 07:32:04;;;;;;;9.77;1.38;;;11.00;98.40;;;;;;4740989;30;20430;-85
2021/10/21 07:34:54;;;;;;;10.77;1.33;;;11.00;98.60;;;;;;4737001;30;20056;-84
2021/10/21 07:42:00;;;;;;;;;;;;;;;;;;;;;
2021/10/21 08:02:24;;;;;;;8.90;1.27;;;11.00;97.70;;;;;;4922091;24;20093;-84
2021/10/21 08:05:10;;;;;;;6.95;1.20;;;11.00;97.60;;;;;;4812027;29;20046;-83
2021/10/21 08:07:54;;;;;;;9.63;1.33;;;11.00;97.30;;;;;;4795868;29;20070;-81
2021/10/21 08:10:56;;;;;;;;;;;;;;;;;;;;;
2021/10/21 08:13:36;;;;;;;7.47;1.10;;;11.00;97.30;;;;;;4967961;24;20066;-85
2021/10/21 08:16:23;;;;;;;11.55;1.60;;;11.00;97.30;;;;;;4790146;29;20057;-85
2021/10/21 08:19:33;;;;;;;7.55;1.33;;;10.90;97.30;;;;;;4790707;29;20050;-85
2021/10/21 08:22:48;;;;;;;9.23;1.50;;;10.90;97.10;;;;;;4718429;30;20432;-86
2021/10/21 08:29:53;;;;;;;;;;;;;;;;;;;;;
2021/10/21 09:00:19;;;;;;;6.55;0.93;;;11.00;97.70;;;;;;5157856;24;20070;-87
2021/10/21 09:10:25;;;;;;;6.82;0.95;;;11.00;97.40;;;;;;4714121;30;20466;-83
2021/10/21 09:13:00;;;;;;;6.18;0.82;;;11.00;97.60;;;;;;4717713;30;20586;-83
2021/10/21 09:22:42;;;;;;;;;;;;;;;;;;;;;
2021/10/21 09:26:23;;;;;;;;;;;;;;;;;;;;;
2021/10/21 09:36:09;;;;;;;7.28;1.10;;;11.00;97.90;;;;;;4682342;30;20053;-85
2021/10/21 09:39:16;;;;;;;7.53;0.93;;;11.10;98.00;;;;;;4724530;30;20052;-84
2021/10/21 09:57:52;;;;;;;4.35;0.70;;;11.10;98.10;;;;;;4742467;30;20101;-88
2021/10/21 10:00:34;;;;;;;5.20;0.60;;;11.10;98.10;;;;;;4741546;30;20056;-84
2021/10/21 10:10:02;;;;;;;5.03;0.57;;;11.00;98.10;;;;;;4715941;30;20061;-82
2021/10/21 10:12:38;;;;;;;5.95;0.90;;;11.00;98.00;;;;;;4727933;29;20067;-83
2021/10/21 10:15:23;;;;;;;6.18;0.98;;;10.90;97.90;;;;;;4782798;29;20400;-85
2021/10/21 10:17:59;;;;;;;4.53;0.70;;;10.80;97.60;;;;;;4789070;29;20146;-84
2021/10/21 10:21:18;;;;;;;3.30;0.50;;;10.80;97.80;;;;;;4782267;29;20050;-85
2021/10/21 10:24:38;;;;;;;7.60;0.88;;;10.70;97.60;;;;;;4769836;29;20067;-85
2021/10/21 10:27:27;;;;;;;7.72;0.85;;;10.70;97.90;;;;;;4775496;30;20512;-85
2021/10/21 10:30:05;;;;;;;3.75;0.57;;;10.60;98.00;;;;;;4774235;30;20047;-83
2021/10/21 10:32:47;;;;;;;2.80;0.63;;;10.50;97.90;;;;;;4774654;30;20055;-83
2021/10/21 10:35:36;;;;;;;6.90;0.77;;;10.50;97.90;;;;;;4775170;30;20062;-84
2021/10/21 10:38:16;;;;;;;5.30;0.80;;;10.40;97.80;;;;;;4775944;29;20404;-85
2021/10/21 10:40:46;;;;;;;5.90;0.70;;;10.40;97.90;;;;;;4782449;29;20083;-84
2021/10/21 10:43:17;;;;;;;3.25;0.60;;;10.40;98.00;;;;;;4791515;29;20107;-86
2021/10/21 10:45:51;;;;;;;4.25;0.70;;;10.40;98.20;;;;;;4781422;29;20532;-84
2021/10/21 10:48:46;;;;;;;5.40;0.90;;;10.30;98.10;;;;;;4792119;29;20058;-85
2021/10/21 10:51:14;;;;;;;5.30;0.70;;;10.30;98.20;;;;;;4791500;29;20130;-88
2021/10/21 10:53:45;;;;;;;4.10;0.70;;;10.30;98.30;;;;;;4791733;29;20477;-90
2021/10/21 11:23:27;;;;;;;5.70;0.98;;;10.40;98.10;;;;;;4863044;24;20061;-87
2021/10/21 11:29:53;;;;;;;9.40;1.60;;;10.40;98.10;;;;;;4754411;30;20047;-89
2021/10/21 11:36:27;;;;;;;15.45;3.22;;;10.40;98.20;;;;;;4759027;30;20077;-89
2021/10/21 11:39:51;;;;;;;9.23;1.50;;;10.40;98.10;;;;;;4747297;30;20054;-88
2021/10/21 12:11:44;;;;;;;8.30;1.33;;;10.30;97.40;;;;;;4832612;24;20055;-89
2021/10/21 12:15:03;;;;;;;8.77;1.55;;;10.30;97.20;;;;;;4826668;29;20058;-89
2021/10/21 12:17:29;;;;;;;9.02;1.25;;;10.30;97.20;;;;;;4809421;29;20137;-89
2021/10/21 12:24:00;;;;;;;10.82;1.70;;;10.30;97.20;;;;;;4807088;29;20047;-90
2021/10/21 12:30:38;;;;;;;6.78;1.48;;;10.30;96.70;;;;;;4828671;29;20057;-90
2021/10/21 12:33:48;;;;;;;6.97;1.23;;;10.30;96.90;;;;;;4806455;29;20077;-90
2021/10/21 12:40:25;;;;;;;7.68;1.20;;;10.30;97.10;;;;;;4812001;29;20042;-88
2021/10/21 12:43:27;;;;;;;8.63;1.40;;;10.30;97.10;;;;;;4801905;29;20389;-87
2021/10/21 12:46:30;;;;;;;7.57;1.30;;;10.30;97.20;;;;;;5051411;24;20070;-86
2021/10/21 12:49:23;;;;;;;7.28;1.10;;;10.20;97.00;;;;;;4814634;29;20097;-85
2021/10/21 12:52:26;;;;;;;9.80;1.50;;;10.30;97.00;;;;;;4799024;29;20050;-85
2021/10/21 12:56:03;;;;;;;9.40;1.70;;;10.30;97.00;;;;;;4819506;29;20085;-83
2021/10/21 12:58:25;;;;;;;7.88;1.70;;;10.20;97.00;;;;;;4808988;29;20119;-86
2021/10/21 13:04:05;;;;;;;8.38;1.60;;;10.20;97.00;;;;;;4774865;29;20057;-87
2021/10/21 13:07:09;;;;;;;;;;;;;;;;;;;;;
2021/10/21 13:09:47;;;;;;;;;;;10.20;97.10;;;;;;4781033;29;20062;-86
2021/10/21 13:12:23;;;;;;;10.00;1.45;;;10.10;96.50;;;;;;4807238;29;19921;-86
2021/10/21 13:15:07;;;;;;;11.63;1.70;;;10.20;97.20;;;;;;4806959;29;20054;-85
2021/10/21 13:18:04;;;;;;;10.40;1.80;;;10.20;97.10;;;;;;4805422;29;20050;-86
2021/10/21 13:24:02;;;;;;;12.50;2.25;;;10.30;97.00;;;;;;4794266;29;20043;-87
2021/10/21 13:27:00;;;;;;;11.35;2.00;;;10.40;97.10;;;;;;4805231;29;20529;-88
2021/10/21 13:29:29;;;;;;;11.98;1.88;;;10.40;97.10;;;;;;4799808;29;20067;-86
2021/10/21 13:35:27;;;;;;;12.85;2.58;;;10.40;96.70;;;;;;4802810;29;20402;-86
2021/10/21 13:38:19;;;;;;;15.45;2.72;;;10.40;96.70;;;;;;4752222;30;20056;-86
2021/10/21 13:48:41;;;;;;;20.77;3.05;;;10.40;96.70;;;;;;4799522;29;20103;-87
2021/10/21 13:51:26;;;;;;;19.58;2.88;;;10.40;96.90;;;;;;4801263;29;20050;-88
2021/10/21 13:53:55;;;;;;;19.23;2.78;;;10.40;96.60;;;;;;4791919;29;20065;-89
2021/10/21 13:56:25;;;;;;;17.55;2.90;;;10.40;96.40;;;;;;4801200;29;20047;-88
2021/10/21 13:58:53;;;;;;;16.83;3.63;;;10.40;96.30;;;;;;4792283;29;20054;-88
2021/10/21 14:01:34;;;;;;;16.23;2.67;;;10.50;96.20;;;;;;4791687;29;20050;-87
2021/10/21 14:07:40;;;;;;;17.85;2.85;;;10.50;95.50;;;;;;4785057;29;20492;-89
2021/10/21 14:10:46;;;;;;;19.10;2.92;;;10.60;94.80;;;;;;4754698;30;20048;-89
2021/10/21 14:38:28;;;;;;;17.35;3.28;;;10.70;93.60;;;;;;4815992;29;20061;-86
2021/10/21 14:41:15;;;;;;;16.73;3.15;;;10.70;94.00;;;;;;4817551;29;20050;-86
2021/10/21 14:46:55;;;;;;;13.43;2.28;;;10.70;93.30;;;;;;4822305;29;20138;-89
2021/10/21 14:50:21;;;;;;;;;;;;;;;;;;;;;
2021/10/21 14:52:50;;;;;;;10.15;2.28;;;10.70;92.60;;;;;;4816460;29;20053;-95
2021/10/21 14:55:25;;;;;;;9.90;1.98;;;10.60;93.30;;;;;;4824565;29;20061;-88
2021/10/21 14:58:00;;;;;;;10.38;1.80;;;10.60;93.30;;;;;;4793146;29;20101;-89
2021/10/21 15:00:28;;;;;;;14.27;2.22;;;10.60;93.20;;;;;;4806172;29;20129;-91
2021/10/21 15:02:55;;;;;;;15.15;2.90;;;10.60;93.40;;;;;;4817632;29;20065;-90
2021/10/21 15:05:28;;;;;;;10.13;2.17;;;10.50;93.00;;;;;;4816278;29;20428;-88
2021/10/21 15:24:41;;;;;;;12.85;2.50;;;10.40;93.30;;;;;;4734727;30;20498;-92
2021/10/21 15:31:39;;;;;;;11.02;1.90;;;10.30;92.80;;;;;;4720340;30;20543;-93
2021/10/21 16:12:29;;;;;;;17.75;2.33;;;9.70;93.70;;;;;;4670238;30;20495;-84
2021/10/21 16:34:38;;;;;;;18.73;4.38;;;9.10;93.40;;;;;;4762063;30;20073;-83
2021/10/21 16:38:12;;;;;;;16.17;3.38;;;9.10;93.80;;;;;;4753567;30;20048;-83
2021/10/21 16:41:21;;;;;;;17.13;3.08;;;9.00;93.40;;;;;;4730217;30;20053;-84
2021/10/21 16:44:23;;;;;;;18.50;2.60;;;9.00;93.20;;;;;;4697212;30;20068;-83
2021/10/21 16:46:49;;;;;;;15.25;3.42;;;8.90;93.20;;;;;;4684535;30;20496;-88
2021/10/21 16:49:14;;;;;;;13.68;2.47;;;8.90;93.20;;;;;;4718554;30;20155;-88
2021/10/21 16:51:40;;;;;;;20.23;2.90;;;8.90;93.10;;;;;;4741543;30;20287;-90
2021/10/21 16:54:07;;;;;;;40.50;3.95;;;8.80;93.20;;;;;;4737729;30;20109;-90
2021/10/21 16:56:33;;;;;;;18.13;2.85;;;8.90;93.60;;;;;;4742508;30;20052;-93
2021/10/21 16:58:58;;;;;;;29.98;4.35;;;8.80;93.60;;;;;;4742354;30;20073;-93
2021/10/21 17:01:25;;;;;;;24.13;3.83;;;8.90;93.90;;;;;;4741903;30;20129;-92
2021/10/21 17:03:51;;;;;;;22.70;3.40;;;8.90;94.30;;;;;;4743522;30;20071;-82
2021/10/21 17:06:20;;;;;;;18.70;3.38;;;8.90;94.20;;;;;;4751322;30;20416;-82
2021/10/21 17:08:50;;;;;;;17.83;2.58;;;8.90;94.20;;;;;;4753752;30;20117;-83
2021/10/21 17:11:16;;;;;;;16.13;2.42;;;8.90;93.90;;;;;;4753948;30;20052;-88
2021/10/21 17:13:42;;;;;;;19.10;2.85;;;8.90;93.90;;;;;;4748542;30;20056;-87
2021/10/21 17:16:09;;;;;;;20.58;2.65;;;8.90;94.00;;;;;;4772130;30;20054;-87
2021/10/21 17:18:38;;;;;;;12.82;2.42;;;8.90;93.70;;;;;;4780381;29;20050;-87
2021/10/21 17:21:05;;;;;;;11.40;2.65;;;8.80;93.60;;;;;;4787479;29;20059;-93
2021/10/21 17:23:32;;;;;;;14.50;2.50;;;8.80;93.80;;;;;;4784183;29;20054;-93
2021/10/21 17:25:58;;;;;;;15.82;2.80;;;8.80;93.70;;;;;;4786217;29;20066;-92
2021/10/21 17:28:29;;;;;;;19.25;2.80;;;8.80;93.90;;;;;;4809545;29;20077;-94
2021/10/21 17:30:59;;;;;;;12.70;2.40;;;8.80;94.10;;;;;;4797845;29;20066;-90
2021/10/21 17:33:26;;;;;;;15.50;2.60;;;8.80;94.30;;;;;;4793441;29;20080;-92
2021/10/21 17:35:52;;;;;;;15.13;2.40;;;8.80;94.40;;;;;;4802113;29;20047;-92
2021/10/21 17:38:18;;;;;;;12.10;1.95;;;8.80;94.20;;;;;;4794667;29;20114;-93
2021/10/21 17:40:44;;;;;;;13.90;2.28;;;8.70;93.90;;;;;;4816597;29;20051;-91
2021/10/21 17:43:09;;;;;;;16.10;2.70;;;8.70;93.60;;;;;;4814086;29;20061;-90
2021/10/21 17:45:35;;;;;;;15.95;2.40;;;8.70;93.70;;;;;;4792995;29;20110;-93
2021/10/21 17:48:01;;;;;;;13.25;2.10;;;8.70;93.70;;;;;;4792165;29;20078;-91
2021/10/21 17:50:26;;;;;;;13.90;2.15;;;8.70;93.80;;;;;;4792381;29;20047;-92
2021/10/21 17:52:52;;;;;;;13.85;2.10;;;8.70;93.70;;;;;;4806923;29;20061;-93
2021/10/21 17:55:22;;;;;;;13.00;2.03;;;8.70;93.90;;;;;;4791497;29;20043;-91
2021/10/21 17:57:48;;;;;;;12.05;2.38;;;8.70;93.90;;;;;;4792090;29;20055;-91
2021/10/21 18:00:14;;;;;;;12.98;2.40;;;8.60;94.10;;;;;;4795522;29;20047;-91
2021/10/21 18:02:40;;;;;;;12.32;2.20;;;8.60;93.80;;;;;;4811741;29;20089;-91
2021/10/21 18:05:06;;;;;;;11.60;2.08;;;8.60;93.70;;;;;;4797451;29;20077;-91
2021/10/21 18:07:32;;;;;;;10.10;2.25;;;8.60;94.00;;;;;;4813862;29;20046;-91
2021/10/21 18:09:57;;;;;;;11.43;2.10;;;8.50;93.90;;;;;;4802693;29;20569;-92
2021/10/21 18:12:23;;;;;;;13.25;2.30;;;8.60;93.90;;;;;;4805968;29;20047;-90
2021/10/21 18:14:49;;;;;;;10.93;2.00;;;8.50;94.10;;;;;;4806212;29;20050;-91
2021/10/21 18:17:14;;;;;;;11.73;2.40;;;8.50;94.00;;;;;;4814670;29;20086;-92
2021/10/21 18:19:40;;;;;;;11.35;2.20;;;8.50;93.80;;;;;;4796167;29;20150;-91
2021/10/21 18:22:06;;;;;;;9.05;2.13;;;8.50;93.90;;;;;;4796396;29;20157;-93
2021/10/21 18:24:32;;;;;;;14.05;2.50;;;8.50;94.20;;;;;;4811755;29;20047;-93
2021/10/21 18:26:58;;;;;;;10.95;1.88;;;8.50;94.10;;;;;;4802810;29;20057;-92
2021/10/21 18:29:26;;;;;;;13.80;3.20;;;8.40;94.00;;;;;;4795654;29;20046;-91
2021/10/21 18:31:55;;;;;;;11.88;2.63;;;8.40;93.70;;;;;;4804565;29;20043;-92
2021/10/21 18:34:21;;;;;;;13.63;2.47;;;8.40;93.70;;;;;;4797435;29;20055;-92
2021/10/21 18:36:47;;;;;;;11.63;2.22;;;8.40;93.90;;;;;;4798004;29;20086;-92
2021/10/21 18:39:15;;;;;;;13.15;2.17;;;8.40;93.80;;;;;;4796091;29;20100;-93
2021/10/21 18:41:42;;;;;;;16.83;2.75;;;8.40;93.90;;;;;;4797014;29;20039;-94
2021/10/21 18:44:12;;;;;;;19.60;2.72;;;8.40;93.80;;;;;;4808969;29;20050;-89
2021/10/21 18:46:38;;;;;;;12.55;2.40;;;8.30;93.60;;;;;;4794902;29;20129;-91
2021/10/21 18:49:07;;;;;;;18.65;2.70;;;8.30;93.70;;;;;;4794991;29;20138;-92
2021/10/21 18:51:33;;;;;;;14.48;2.22;;;8.30;93.60;;;;;;4809368;29;20049;-92
2021/10/21 18:54:01;;;;;;;11.52;1.92;;;8.30;93.60;;;;;;4799815;29;20133;-90
2021/10/21 18:56:27;;;;;;;11.25;2.25;;;8.30;93.60;;;;;;4810267;29;20400;-89
2021/10/21 18:58:52;;;;;;;10.10;1.73;;;8.30;93.50;;;;;;4796926;29;20051;-89
2021/10/21 19:01:18;;;;;;;10.93;1.85;;;8.30;93.60;;;;;;4802789;29;20046;-90
2021/10/21 19:03:43;;;;;;;11.85;1.65;;;8.30;93.70;;;;;;4813027;29;20050;-90
2021/10/21 19:06:12;;;;;;;12.27;1.83;;;8.30;93.60;;;;;;4804563;29;20110;-89
2021/10/21 19:08:38;;;;;;;7.65;1.80;;;8.30;93.60;;;;;;4812505;29;20063;-89
2021/10/21 19:11:05;;;;;;;15.25;1.60;;;8.30;93.60;;;;;;4806642;29;20424;-89
2021/10/21 19:13:33;;;;;;;9.45;1.83;;;8.30;93.50;;;;;;4810594;29;20046;-90
2021/10/21 19:15:58;;;;;;;8.98;1.83;;;8.30;93.70;;;;;;4794227;29;20047;-91
2021/10/21 19:18:24;;;;;;;9.65;1.88;;;8.30;94.00;;;;;;4794512;29;20109;-90
2021/10/21 19:20:55;;;;;;;11.80;1.88;;;8.30;94.00;;;;;;4802268;29;20046;-90
2021/10/21 19:23:22;;;;;;;10.38;1.80;;;8.30;94.00;;;;;;4804029;29;20054;-91
2021/10/21 19:25:51;;;;;;;9.43;1.77;;;8.30;94.70;;;;;;4798332;29;20054;-90
2021/10/21 19:28:17;;;;;;;11.65;1.70;;;8.30;94.30;;;;;;4813315;29;20058;-91
2021/10/21 19:30:42;;;;;;;11.88;1.98;;;8.30;94.20;;;;;;4815879;29;20074;-81
2021/10/21 19:33:08;;;;;;;7.63;1.63;;;8.20;94.30;;;;;;4793810;29;20152;-81
2021/10/21 19:35:34;;;;;;;9.60;1.80;;;8.20;94.30;;;;;;4807362;29;20182;-81
2021/10/21 19:38:01;;;;;;;14.73;2.33;;;8.20;94.20;;;;;;4808181;29;20091;-81
2021/10/21 19:40:45;;;;;;;7.65;1.50;;;8.20;94.20;;;;;;4796900;29;20443;-80
2021/10/21 19:43:25;;;;;;;12.02;1.60;;;8.20;94.50;;;;;;4795738;29;20191;-90
2021/10/21 19:45:51;;;;;;;10.77;1.95;;;8.20;94.70;;;;;;4808927;29;20518;-89
2021/10/21 19:48:26;;;;;;;9.90;1.60;;;8.20;94.70;;;;;;4796073;29;20043;-90
2021/10/21 19:51:42;;;;;;;11.20;1.90;;;8.20;94.80;;;;;;4809078;29;20065;-91
2021/10/21 19:54:27;;;;;;;12.63;2.20;;;8.20;94.70;;;;;;4794684;29;20086;-90
2021/10/21 19:57:08;;;;;;;14.77;2.13;;;8.10;94.80;;;;;;4794788;29;20108;-90
2021/10/21 19:59:43;;;;;;;7.45;1.80;;;8.10;94.80;;;;;;4798559;29;20407;-91
2021/10/21 20:02:21;;;;;;;10.52;2.22;;;8.20;95.00;;;;;;4809267;29;20095;-90
2021/10/21 20:04:58;;;;;;;7.85;1.52;;;8.10;95.00;;;;;;4810488;29;20066;-90
2021/10/21 20:07:40;;;;;;;9.05;1.88;;;8.10;95.20;;;;;;4781956;29;20380;-90
2021/10/21 20:10:31;;;;;;;7.57;1.58;;;8.10;95.40;;;;;;4796991;29;20046;-91
2021/10/21 20:13:03;;;;;;;10.20;1.70;;;8.10;95.40;;;;;;4799582;29;20066;-90
2021/10/21 20:15:44;;;;;;;8.77;1.63;;;8.10;95.40;;;;;;4810005;29;20520;-90
2021/10/21 20:22:00;;;;;;;7.57;1.38;;;8.10;95.70;;;;;;4815482;29;20054;-91
2021/10/21 20:24:26;;;;;;;9.70;1.75;;;8.00;95.60;;;;;;4791064;29;20388;-91
2021/10/21 20:30:53;;;;;;;15.40;2.00;;;8.00;95.60;;;;;;4814021;29;20047;-90
2021/10/21 20:33:58;;;;;;;11.23;1.92;;;8.00;95.40;;;;;;4799029;29;20057;-90
2021/10/21 20:36:56;;;;;;;;;;;;;;;;;;;;;
2021/10/21 20:40:23;;;;;;;10.90;1.83;;;7.90;95.30;;;;;;4813768;29;20072;-91
2021/10/21 20:42:54;;;;;;;11.15;2.10;;;7.90;95.20;;;;;;4755560;30;20405;-90
2021/10/21 20:45:25;;;;;;;10.93;1.90;;;7.90;95.40;;;;;;4755808;30;20056;-90
2021/10/21 20:48:04;;;;;;;11.98;2.05;;;7.90;95.30;;;;;;4754722;30;20081;-90
2021/10/21 20:51:05;;;;;;;10.27;1.65;;;7.90;95.30;;;;;;4752422;30;20063;-90
2021/10/21 20:53:36;;;;;;;8.45;1.58;;;7.90;95.20;;;;;;4740464;30;20056;-88
2021/10/21 20:56:45;;;;;;;10.35;1.65;;;7.90;95.20;;;;;;4750621;30;20059;-91
2021/10/21 21:06:53;;;;;;;11.15;1.70;;;7.80;95.20;;;;;;4773178;30;20073;-93
2021/10/21 21:09:56;;;;;;;;;;;;;;;;;;;;;
2021/10/21 21:24:05;;;;;;;9.02;1.50;;;7.80;95.50;;;;;;4643676;30;20133;-90
2021/10/21 21:27:06;;;;;;;7.43;1.30;;;7.80;95.50;;;;;;4681956;30;20062;-91
2021/10/21 21:30:45;;;;;;;7.13;1.10;;;7.90;95.50;;;;;;4664805;30;20488;-91
2021/10/21 21:34:37;;;;;;;;;;;;;;;;;;;;;
2021/10/21 21:47:45;;;;;;;7.82;1.40;;;7.70;95.20;;;;;;4670266;30;19927;-92
2021/10/21 21:50:43;;;;;;;5.43;1.10;;;7.70;95.80;;;;;;4684948;30;20073;-92
2021/10/21 21:53:28;;;;;;;7.47;1.20;;;7.70;95.70;;;;;;4704268;30;20060;-91
2021/10/21 21:59:28;;;;;;;8.10;1.20;;;7.80;95.80;;;;;;4723159;30;20120;-92
2021/10/21 22:02:43;;;;;;;5.35;0.90;;;7.70;95.80;;;;;;4723201;30;20049;-92
2021/10/21 22:20:53;;;;;;;;;;;;;;;;;;;;;
2021/10/21 22:24:03;;;;;;;5.90;1.00;;;7.60;96.30;;;;;;4630202;31;20075;-91
2021/10/21 22:26:56;;;;;;;8.95;1.27;;;7.60;96.30;;;;;;4961988;24;20058;-92
2021/10/21 22:34:11;;;;;;;;;;;;;;;;;;;;;
2021/10/21 22:37:24;;;;;;;10.27;1.40;;;7.70;96.20;;;;;;4788750;30;20063;-92
2021/10/21 22:48:28;;;;;;;8.02;1.10;;;7.70;95.90;;;;;;4801374;29;20119;-92
2021/10/21 22:51:45;;;;;;;7.78;1.27;;;7.80;95.90;;;;;;4797448;29;20046;-93
2021/10/21 22:58:02;;;;;;;7.38;1.30;;;7.80;95.80;;;;;;4779539;30;20047;-92
2021/10/21 23:01:28;;;;;;;3.90;1.05;;;7.80;95.90;;;;;;4780322;30;20104;-92
2021/10/21 23:08:23;;;;;;;5.50;0.90;;;7.80;95.90;;;;;;4779827;29;20088;-93
2021/10/21 23:11:41;;;;;;;6.88;1.02;;;7.80;95.90;;;;;;4775623;29;20544;-92
2021/10/21 23:15:01;;;;;;;;;;;;;;;;;;;;;
2021/10/21 23:18:08;;;;;;;5.30;1.00;;;7.80;95.80;;;;;;4780186;29;20157;-91
2021/10/21 23:20:49;;;;;;;8.82;1.10;;;7.80;95.90;;;;;;4797452;29;20050;-93
2021/10/21 23:27:00;;;;;;;6.75;0.93;;;7.80;95.80;;;;;;4707067;30;20147;-92
2021/10/21 23:39:04;;;;;;;9.80;1.33;;;7.80;95.70;;;;;;4792504;30;20511;-90
